Utah County RPA :: 7CLARKCANYON

liberation: 2020-10-17  08:20     latitude: 44.996383     longitude: -112.856183 73 birds
# LOFT PRING MILES ARRIVAL SPEED ToWin
1 Craig Allred AU20-UVI-358 342.632 2020-10-17 15:02:49.471 1497.009 00:00:00
2 Craig Allred AU20-UVI-303 342.632 2020-10-17 15:04:28.733 1490.886 00:01:39
3 Riley Allred AU20-UCA-116 342.632 2020-10-17 15:04:55.771 1489.227 00:02:06
4 Peery Loft AU20-UCA-0025 346.547 2020-10-17 15:10:06.204 1487.240 00:02:41
5 Riley Allred AU20-UCA-153 342.632 2020-10-17 15:07:50.653 1478.584 00:05:01
6 Peery Loft AU20-UCA-0019 346.547 2020-10-17 15:13:23.558 1475.407 00:05:58
7 Riley Allred AU20-UCA-157 342.632 2020-10-17 15:09:26.644 1472.806 00:06:37
8 Riley Allred AU20-UCA-119 342.632 2020-10-17 15:10:32.342 1468.878 00:07:43
9 Peery Loft AU20-UCA-0003 346.547 2020-10-17 15:23:09.665 1441.348 00:15:44
10 Riley Allred AU20-UCA-106 342.632 2020-10-17 15:18:24.766 1441.237 00:15:35
11 Cole Allred AU20-NLI-2004 342.632 2020-10-17 15:18:27.273 1441.093 00:15:38
12 Cole Allred IF20-VDB-0055 342.632 2020-10-17 15:19:37.264 1437.087 00:16:48
13 Riley Allred AU20-UCA-127 342.632 2020-10-17 15:20:03.047 1435.616 00:17:14
14 Cole Allred AU20-NLI-2419 342.632 2020-10-17 15:20:14.645 1434.956 00:17:25
15 Cole Allred IF20-VDB-31 342.632 2020-10-17 15:22:07.550 1428.559 00:19:18
16 Dry Creek Lofts AU20-NEBO-349 348.047 2020-10-17 15:28:59.025 1427.939 00:19:48
17 Peery Loft AU20-UCA-0041 346.547 2020-10-17 15:28:22.883 1423.784 00:20:57
18 Peery Loft AU20-UCA-0034 346.547 2020-10-17 15:28:41.610 1422.747 00:21:16
19 Dry Creek Lofts AU20-NEBO-340 348.047 2020-10-17 15:32:40.320 1415.766 00:23:29
20 Dry Creek Lofts AU20-NEBO-303 348.047 2020-10-17 15:32:40.687 1415.746 00:23:29
21 Dry Creek Lofts AU20-NEBO-360 348.047 2020-10-17 15:32:41.077 1415.725 00:23:30
22 Cole Allred AU20-HARM-1695 342.632 2020-10-17 15:26:03.459 1415.376 00:23:14
23 Cole Allred AU20-HARM-2617 342.632 2020-10-17 15:26:55.420 1412.505 00:24:06
24 Peery Loft AU20-UCA-0033 346.547 2020-10-17 15:32:35.323 1409.936 00:25:10
25 Craig Allred AU20-UVI-359 342.632 2020-10-17 15:27:47.962 1409.614 00:24:58
26 Riley Allred AU20-UCA-166 342.632 2020-10-17 15:28:01.783 1408.855 00:25:12
27 Cole Allred AU20-NLI-2417 342.632 2020-10-17 15:28:03.521 1408.760 00:25:14
28 Riley Allred AU20-UCA-151 342.632 2020-10-17 15:29:16.960 1404.743 00:26:27
29 Riley Allred AU20-UCA-169 342.632 2020-10-17 15:29:17.697 1404.703 00:26:28
30 Riley Allred AU20-UCA-170 342.632 2020-10-17 15:29:18.268 1404.672 00:26:29
31 Riley Allred AU20-UCA-161 342.632 2020-10-17 15:29:23.967 1404.361 00:26:34
32 Dry Creek Lofts AU20-NEB0-334 348.047 2020-10-17 15:36:54.794 1402.023 00:27:43
33 Ross Johnson AU20-NEBO-45 341.343 2020-10-17 15:34:46.671 1381.772 00:33:28
34 Riley Allred AU20-UCA-144 342.632 2020-10-17 15:36:55.356 1380.180 00:34:06
35 Ross Johnson AU20-NEBO-13 341.343 2020-10-17 15:36:42.722 1375.652 00:35:24
36 Riley Allred AU20-UCA-147 342.632 2020-10-17 15:47:01.215 1349.003 00:44:12
37 Cole Allred IF20-VDB-25 342.632 2020-10-17 15:47:39.230 1347.094 00:44:50
38 Dry Creek Lofts AU20-NEBO-315 348.047 2020-10-17 15:55:50.762 1343.793 00:46:39
39 Dry Creek Lofts AU20-NEBO-329 348.047 2020-10-17 15:55:58.561 1343.409 00:46:47
40 Peery Loft AU20-UCA-0042 346.547 2020-10-17 15:58:03.501 1331.539 00:50:38
41 Cole Allred AU20-NLI-2121 342.632 2020-10-17 15:56:43.936 1320.318 00:53:54
42 Craig Allred AU20-UVI-352 342.632 2020-10-17 15:56:52.955 1319.883 00:54:04
43 Dry Creek Lofts AU20-NEBO-357 348.047 2020-10-17 16:08:49.615 1306.586 00:59:38
44 Ross Johnson AU20-NEBO-20 341.343 2020-10-17 16:07:01.460 1286.365 01:05:43
45 Peery Loft AU20-UCA-0005 346.547 2020-10-17 16:15:02.429 1283.938 01:07:37
46 Dry Creek Lofts AU-20-NEBO-323 348.047 2020-10-17 16:20:55.980 1273.696 01:11:45
47 Dry Creek Lofts AU20-NEBO-327 348.047 2020-10-17 16:21:32.994 1272.064 01:12:22
48 Dry Creek Lofts AU20-NEBO-319 348.047 2020-10-17 16:27:21.965 1256.884 01:18:11
49 Peery Loft AU20-UCA-0035 346.547 2020-10-17 16:33:20.892 1236.292 01:25:55
50 Peery Loft AU20-UCA-0049 346.547 2020-10-17 16:37:51.974 1225.073 01:30:26
51 Peery Loft AU20-UCA-0032 346.547 2020-10-17 16:43:10.264 1212.157 01:35:45
52 Cole Allred AU20-HARM-1689 342.632 2020-10-17 16:50:42.307 1180.783 01:47:53
53 Dry Creek Lofts AU20-NEBO-322 348.047 2020-10-17 16:59:50.775 1178.353 01:50:39
54 Cole Allred AU20-NLI-2008 342.632 2020-10-17 17:06:01.350 1146.399 02:03:12
55 Dry Creek Lofts AU20-NEBO-301 348.047 2020-10-17 17:20:07.074 1134.127 02:10:56
56 Dry Creek Lofts AU20-NEBO-356 348.047 2020-10-17 17:40:48.645 1092.280 02:31:37
57 Cole Allred IF20-VDB-0060 342.632 2020-10-17 18:00:26.845 1038.909 02:57:37
58 Dry Creek Lofts AU20-NEBO-305 348.047 2020-10-17 18:29:13.606 1005.475 03:20:02
59 Dry Creek Lofts AU20-UCA-358 348.047 2020-10-17 18:30:43.075 1003.020 03:21:32
60 Dry Creek Lofts AU20-NEBO-328 348.047 2020-10-17 19:13:07.089 938.865 04:03:16
61 Dry Creek Lofts AU20-NEBO-361 348.047 2020-10-18 08:07:46.444 877.420 04:48:57
Cole Allred AU20-NLI-2015 0 0000-00-00 00:00:00.000 0.000 00:00:00
Cole Allred AU20-NLI-2413 0 0000-00-00 00:00:00.000 0.000 00:00:00
Craig Allred AU20-UVI-361 0 0000-00-00 00:00:00.000 0.000 00:00:00
Craig Allred AU20-UVI-366 0 0000-00-00 00:00:00.000 0.000 00:00:00
Dry Creek Lofts AU20-NEBO-311 0 0000-00-00 00:00:00.000 0.000 00:00:00
Dry Creek Lofts AU20-NEBO-325 0 0000-00-00 00:00:00.000 0.000 00:00:00
Dry Creek Lofts AU20-NEBO-332 0 0000-00-00 00:00:00.000 0.000 00:00:00
Dry Creek Lofts AU20-NEBO-365 0 0000-00-00 00:00:00.000 0.000 00:00:00
Riley Allred AU20-UCA-156 0 0000-00-00 00:00:00.000 0.000 00:00:00
Ross Johnson AU20-NEBO-15 0 0000-00-00 00:00:00.000 0.000 00:00:00
Ross Johnson AU20-NEBO-33 0 0000-00-00 00:00:00.000 0.000 00:00:00
Ross Johnson AU20-NEBO-37 0 0000-00-00 00:00:00.000 0.000 00:00:00